sensor_id;sensor_type;location;lat;lon;timestamp;temperature;humidity
11284;DHT22;5698;47.332;11.180;2022-12-07T00:00:53;-1.90;99.90
11284;DHT22;5698;47.332;11.180;2022-12-07T00:03:20;-1.90;99.90
11284;DHT22;5698;47.332;11.180;2022-12-07T00:05:47;-1.90;99.90
11284;DHT22;5698;47.332;11.180;2022-12-07T00:08:14;-1.90;99.90
11284;DHT22;5698;47.332;11.180;2022-12-07T00:10:41;-1.80;99.90
11284;DHT22;5698;47.332;11.180;2022-12-07T00:13:08;-1.80;99.90
11284;DHT22;5698;47.332;11.180;2022-12-07T00:15:36;-1.70;99.90
11284;DHT22;5698;47.332;11.180;2022-12-07T00:18:03;-1.70;99.90
11284;DHT22;5698;47.332;11.180;2022-12-07T00:20:30;-1.70;99.90
11284;DHT22;5698;47.332;11.180;2022-12-07T00:22:58;-1.70;99.90
11284;DHT22;5698;47.332;11.180;2022-12-07T00:25:25;-1.70;99.90
11284;DHT22;5698;47.332;11.180;2022-12-07T00:27:53;-1.70;99.90
11284;DHT22;5698;47.332;11.180;2022-12-07T00:30:21;-1.70;99.90
11284;DHT22;5698;47.332;11.180;2022-12-07T00:32:49;-1.70;99.90
11284;DHT22;5698;47.332;11.180;2022-12-07T00:35:16;-1.70;99.90
11284;DHT22;5698;47.332;11.180;2022-12-07T00:37:43;-1.80;99.90
11284;DHT22;5698;47.332;11.180;2022-12-07T00:40:11;-1.80;99.90
11284;DHT22;5698;47.332;11.180;2022-12-07T00:42:38;-1.80;99.90
11284;DHT22;5698;47.332;11.180;2022-12-07T00:45:06;-1.80;99.90
11284;DHT22;5698;47.332;11.180;2022-12-07T00:47:33;-1.80;99.90
11284;DHT22;5698;47.332;11.180;2022-12-07T00:50:02;-1.80;99.90
11284;DHT22;5698;47.332;11.180;2022-12-07T00:52:29;-1.80;99.90
11284;DHT22;5698;47.332;11.180;2022-12-07T00:54:56;-1.70;99.90
11284;DHT22;5698;47.332;11.180;2022-12-07T00:57:23;-1.80;99.90
11284;DHT22;5698;47.332;11.180;2022-12-07T00:59:50;-1.80;99.90
11284;DHT22;5698;47.332;11.180;2022-12-07T01:02:20;-1.70;99.90
11284;DHT22;5698;47.332;11.180;2022-12-07T01:04:48;-1.70;99.90
11284;DHT22;5698;47.332;11.180;2022-12-07T01:07:16;-1.70;99.90
11284;DHT22;5698;47.332;11.180;2022-12-07T01:09:43;-1.70;99.90
11284;DHT22;5698;47.332;11.180;2022-12-07T01:12:10;-1.70;99.90
11284;DHT22;5698;47.332;11.180;2022-12-07T01:14:37;-1.70;99.90
11284;DHT22;5698;47.332;11.180;2022-12-07T01:17:04;-1.80;99.90
11284;DHT22;5698;47.332;11.180;2022-12-07T01:19:31;-1.70;99.90
11284;DHT22;5698;47.332;11.180;2022-12-07T01:21:58;-1.80;99.90
11284;DHT22;5698;47.332;11.180;2022-12-07T01:24:26;-1.80;99.90
11284;DHT22;5698;47.332;11.180;2022-12-07T01:26:53;-1.80;99.90
11284;DHT22;5698;47.332;11.180;2022-12-07T01:29:20;-1.70;99.90
11284;DHT22;5698;47.332;11.180;2022-12-07T01:31:48;-1.60;99.90
11284;DHT22;5698;47.332;11.180;2022-12-07T01:34:16;-1.80;99.90
11284;DHT22;5698;47.332;11.180;2022-12-07T01:36:43;-1.90;99.90
11284;DHT22;5698;47.332;11.180;2022-12-07T01:39:10;-1.90;99.90
11284;DHT22;5698;47.332;11.180;2022-12-07T01:41:39;-1.90;99.90
11284;DHT22;5698;47.332;11.180;2022-12-07T01:44:20;-1.80;99.90
11284;DHT22;5698;47.332;11.180;2022-12-07T01:46:48;-1.90;99.90
11284;DHT22;5698;47.332;11.180;2022-12-07T01:49:20;-1.80;99.90
11284;DHT22;5698;47.332;11.180;2022-12-07T01:51:49;-1.80;99.90
11284;DHT22;5698;47.332;11.180;2022-12-07T01:54:20;-1.90;99.90
11284;DHT22;5698;47.332;11.180;2022-12-07T01:56:51;-2.00;99.90
11284;DHT22;5698;47.332;11.180;2022-12-07T01:59:21;-1.90;99.90
11284;DHT22;5698;47.332;11.180;2022-12-07T02:01:50;-1.90;99.90
11284;DHT22;5698;47.332;11.180;2022-12-07T02:04:18;-1.90;99.90
11284;DHT22;5698;47.332;11.180;2022-12-07T02:06:46;-1.80;99.90
11284;DHT22;5698;47.332;11.180;2022-12-07T02:09:13;-1.80;99.90
11284;DHT22;5698;47.332;11.180;2022-12-07T02:11:41;-1.80;99.90
11284;DHT22;5698;47.332;11.180;2022-12-07T02:14:09;-1.80;99.90
11284;DHT22;5698;47.332;11.180;2022-12-07T02:16:46;-1.80;99.90
11284;DHT22;5698;47.332;11.180;2022-12-07T02:19:53;-1.70;99.90
11284;DHT22;5698;47.332;11.180;2022-12-07T02:22:40;-1.90;99.90
11284;DHT22;5698;47.332;11.180;2022-12-07T02:25:22;-1.90;99.90
11284;DHT22;5698;47.332;11.180;2022-12-07T02:27:58;-1.80;99.90
11284;DHT22;5698;47.332;11.180;2022-12-07T02:30:32;-1.80;99.90
11284;DHT22;5698;47.332;11.180;2022-12-07T02:33:04;-1.70;99.90
11284;DHT22;5698;47.332;11.180;2022-12-07T02:35:35;-1.70;99.90
11284;DHT22;5698;47.332;11.180;2022-12-07T02:38:12;-1.70;99.90
11284;DHT22;5698;47.332;11.180;2022-12-07T02:40:43;-1.70;99.90
11284;DHT22;5698;47.332;11.180;2022-12-07T02:43:16;-1.70;99.90
11284;DHT22;5698;47.332;11.180;2022-12-07T02:45:46;-1.70;99.90
11284;DHT22;5698;47.332;11.180;2022-12-07T02:48:16;-1.70;99.90
11284;DHT22;5698;47.332;11.180;2022-12-07T02:50:44;-1.70;99.90
11284;DHT22;5698;47.332;11.180;2022-12-07T02:53:31;-1.70;99.90
11284;DHT22;5698;47.332;11.180;2022-12-07T02:55:59;-1.70;99.90
11284;DHT22;5698;47.332;11.180;2022-12-07T02:58:35;-1.70;99.90
11284;DHT22;5698;47.332;11.180;2022-12-07T03:01:26;-1.60;99.90
11284;DHT22;5698;47.332;11.180;2022-12-07T03:04:08;-1.60;99.90
11284;DHT22;5698;47.332;11.180;2022-12-07T03:06:43;-1.60;99.90
11284;DHT22;5698;47.332;11.180;2022-12-07T03:09:16;-1.60;99.90
11284;DHT22;5698;47.332;11.180;2022-12-07T03:11:48;-1.50;99.90
11284;DHT22;5698;47.332;11.180;2022-12-07T03:14:20;-1.60;99.90
11284;DHT22;5698;47.332;11.180;2022-12-07T03:16:53;-1.60;99.90
11284;DHT22;5698;47.332;11.180;2022-12-07T03:19:24;-1.60;99.90
11284;DHT22;5698;47.332;11.180;2022-12-07T03:21:55;-1.60;99.90
11284;DHT22;5698;47.332;11.180;2022-12-07T03:24:27;-1.50;99.90
11284;DHT22;5698;47.332;11.180;2022-12-07T03:26:59;-1.40;99.90
11284;DHT22;5698;47.332;11.180;2022-12-07T03:29:33;-1.60;99.90
11284;DHT22;5698;47.332;11.180;2022-12-07T03:32:05;-1.50;99.90
11284;DHT22;5698;47.332;11.180;2022-12-07T03:34:36;-1.50;99.90
11284;DHT22;5698;47.332;11.180;2022-12-07T03:37:08;-1.50;99.90
11284;DHT22;5698;47.332;11.180;2022-12-07T03:39:41;-1.60;99.90
11284;DHT22;5698;47.332;11.180;2022-12-07T03:42:12;-1.60;99.90
11284;DHT22;5698;47.332;11.180;2022-12-07T03:44:39;-1.60;99.90
11284;DHT22;5698;47.332;11.180;2022-12-07T03:47:12;-1.60;99.90
11284;DHT22;5698;47.332;11.180;2022-12-07T03:49:44;-1.60;99.90
11284;DHT22;5698;47.332;11.180;2022-12-07T03:52:18;-1.40;99.90
11284;DHT22;5698;47.332;11.180;2022-12-07T03:54:49;-1.50;99.90
11284;DHT22;5698;47.332;11.180;2022-12-07T03:57:19;-1.60;99.90
11284;DHT22;5698;47.332;11.180;2022-12-07T03:59:47;-1.60;99.90
11284;DHT22;5698;47.332;11.180;2022-12-07T04:02:15;-1.60;99.90
11284;DHT22;5698;47.332;11.180;2022-12-07T04:04:43;-1.60;99.90
11284;DHT22;5698;47.332;11.180;2022-12-07T04:07:10;-1.60;99.90
11284;DHT22;5698;47.332;11.180;2022-12-07T04:09:38;-1.60;99.90
11284;DHT22;5698;47.332;11.180;2022-12-07T04:12:05;-1.50;99.90
11284;DHT22;5698;47.332;11.180;2022-12-07T04:14:32;-1.60;99.90
11284;DHT22;5698;47.332;11.180;2022-12-07T04:16:59;-1.60;99.90
11284;DHT22;5698;47.332;11.180;2022-12-07T04:19:30;-1.60;99.90
11284;DHT22;5698;47.332;11.180;2022-12-07T04:21:58;-1.60;99.90
11284;DHT22;5698;47.332;11.180;2022-12-07T04:24:25;-1.60;99.90
11284;DHT22;5698;47.332;11.180;2022-12-07T04:26:53;-1.50;99.90
11284;DHT22;5698;47.332;11.180;2022-12-07T04:29:20;-1.60;99.90
11284;DHT22;5698;47.332;11.180;2022-12-07T04:31:47;-1.50;99.90
11284;DHT22;5698;47.332;11.180;2022-12-07T04:34:15;-1.50;99.90
11284;DHT22;5698;47.332;11.180;2022-12-07T04:36:44;-1.50;99.90
11284;DHT22;5698;47.332;11.180;2022-12-07T04:39:18;-1.60;99.90
11284;DHT22;5698;47.332;11.180;2022-12-07T04:41:45;-1.60;99.90
11284;DHT22;5698;47.332;11.180;2022-12-07T04:44:13;-1.70;99.90
11284;DHT22;5698;47.332;11.180;2022-12-07T04:46:41;-1.70;99.90
11284;DHT22;5698;47.332;11.180;2022-12-07T04:49:09;-1.70;99.90
11284;DHT22;5698;47.332;11.180;2022-12-07T04:51:36;-1.70;99.90
11284;DHT22;5698;47.332;11.180;2022-12-07T04:54:05;-1.80;99.90
11284;DHT22;5698;47.332;11.180;2022-12-07T04:56:32;-1.80;99.90
11284;DHT22;5698;47.332;11.180;2022-12-07T04:59:01;-1.80;99.90
11284;DHT22;5698;47.332;11.180;2022-12-07T05:01:29;-1.70;99.90
11284;DHT22;5698;47.332;11.180;2022-12-07T05:03:56;-1.70;99.90
11284;DHT22;5698;47.332;11.180;2022-12-07T05:06:23;-1.80;99.90
11284;DHT22;5698;47.332;11.180;2022-12-07T05:08:50;-1.70;99.90
11284;DHT22;5698;47.332;11.180;2022-12-07T05:11:18;-1.80;99.90
11284;DHT22;5698;47.332;11.180;2022-12-07T05:14:00;-1.80;99.90
11284;DHT22;5698;47.332;11.180;2022-12-07T05:16:27;-1.80;99.90
11284;DHT22;5698;47.332;11.180;2022-12-07T05:18:54;-1.70;99.90
11284;DHT22;5698;47.332;11.180;2022-12-07T05:21:21;-1.80;99.90
11284;DHT22;5698;47.332;11.180;2022-12-07T05:23:48;-1.80;99.90
11284;DHT22;5698;47.332;11.180;2022-12-07T05:26:15;-1.80;99.90
11284;DHT22;5698;47.332;11.180;2022-12-07T05:28:44;-1.80;99.90
11284;DHT22;5698;47.332;11.180;2022-12-07T05:31:11;-1.90;99.90
11284;DHT22;5698;47.332;11.180;2022-12-07T05:33:38;-1.70;99.90
11284;DHT22;5698;47.332;11.180;2022-12-07T05:36:05;-1.90;99.90
11284;DHT22;5698;47.332;11.180;2022-12-07T05:38:33;-1.90;99.90
11284;DHT22;5698;47.332;11.180;2022-12-07T05:41:01;-1.70;99.90
11284;DHT22;5698;47.332;11.180;2022-12-07T05:43:28;-1.90;99.90
11284;DHT22;5698;47.332;11.180;2022-12-07T05:45:57;-1.90;99.90
11284;DHT22;5698;47.332;11.180;2022-12-07T05:48:24;-1.90;99.90
11284;DHT22;5698;47.332;11.180;2022-12-07T05:50:52;-1.90;99.90
11284;DHT22;5698;47.332;11.180;2022-12-07T05:53:20;-2.00;99.90
11284;DHT22;5698;47.332;11.180;2022-12-07T05:55:47;-2.00;99.90
11284;DHT22;5698;47.332;11.180;2022-12-07T05:58:14;-2.00;99.90
11284;DHT22;5698;47.332;11.180;2022-12-07T06:00:59;-1.80;99.90
11284;DHT22;5698;47.332;11.180;2022-12-07T06:03:26;-2.00;99.90
11284;DHT22;5698;47.332;11.180;2022-12-07T06:05:53;-1.90;99.90
11284;DHT22;5698;47.332;11.180;2022-12-07T06:08:20;-2.00;99.90
11284;DHT22;5698;47.332;11.180;2022-12-07T06:10:47;-1.90;99.90
11284;DHT22;5698;47.332;11.180;2022-12-07T06:13:36;-1.80;99.90
11284;DHT22;5698;47.332;11.180;2022-12-07T06:16:04;-1.80;99.90
11284;DHT22;5698;47.332;11.180;2022-12-07T06:18:31;-1.90;99.90
11284;DHT22;5698;47.332;11.180;2022-12-07T06:20:59;-1.80;99.90
11284;DHT22;5698;47.332;11.180;2022-12-07T06:23:26;-1.80;99.90
11284;DHT22;5698;47.332;11.180;2022-12-07T06:25:53;-1.80;99.90
11284;DHT22;5698;47.332;11.180;2022-12-07T06:28:19;-1.80;99.90
11284;DHT22;5698;47.332;11.180;2022-12-07T06:30:46;-1.90;99.90
11284;DHT22;5698;47.332;11.180;2022-12-07T06:33:15;-1.90;99.90
11284;DHT22;5698;47.332;11.180;2022-12-07T06:35:42;-1.90;99.90
11284;DHT22;5698;47.332;11.180;2022-12-07T06:38:09;-1.80;99.90
11284;DHT22;5698;47.332;11.180;2022-12-07T06:40:36;-1.90;99.90
11284;DHT22;5698;47.332;11.180;2022-12-07T06:43:03;-1.80;99.90
11284;DHT22;5698;47.332;11.180;2022-12-07T06:45:30;-1.90;99.90
11284;DHT22;5698;47.332;11.180;2022-12-07T06:47:57;-1.80;99.90
11284;DHT22;5698;47.332;11.180;2022-12-07T06:50:25;-1.70;99.90
11284;DHT22;5698;47.332;11.180;2022-12-07T06:52:52;-1.70;99.90
11284;DHT22;5698;47.332;11.180;2022-12-07T06:55:19;-1.70;99.90
11284;DHT22;5698;47.332;11.180;2022-12-07T06:57:46;-1.60;99.90
11284;DHT22;5698;47.332;11.180;2022-12-07T07:00:14;-1.70;99.90
11284;DHT22;5698;47.332;11.180;2022-12-07T07:02:41;-1.60;99.90
11284;DHT22;5698;47.332;11.180;2022-12-07T07:05:08;-1.60;99.90
11284;DHT22;5698;47.332;11.180;2022-12-07T07:07:37;-1.60;99.90
11284;DHT22;5698;47.332;11.180;2022-12-07T07:10:05;-1.70;99.90
11284;DHT22;5698;47.332;11.180;2022-12-07T07:12:32;-1.70;99.90
11284;DHT22;5698;47.332;11.180;2022-12-07T07:14:59;-1.70;99.90
11284;DHT22;5698;47.332;11.180;2022-12-07T07:17:26;-1.60;99.90
11284;DHT22;5698;47.332;11.180;2022-12-07T07:19:53;-1.50;99.90
11284;DHT22;5698;47.332;11.180;2022-12-07T07:22:20;-1.60;99.90
11284;DHT22;5698;47.332;11.180;2022-12-07T07:24:48;-1.60;99.90
11284;DHT22;5698;47.332;11.180;2022-12-07T07:27:15;-1.60;99.90
11284;DHT22;5698;47.332;11.180;2022-12-07T07:29:42;-1.50;99.90
11284;DHT22;5698;47.332;11.180;2022-12-07T07:32:09;-1.50;99.90
11284;DHT22;5698;47.332;11.180;2022-12-07T07:34:36;-1.40;99.90
11284;DHT22;5698;47.332;11.180;2022-12-07T07:37:03;-1.50;99.90
11284;DHT22;5698;47.332;11.180;2022-12-07T07:39:30;-1.50;99.90
11284;DHT22;5698;47.332;11.180;2022-12-07T07:41:58;-1.50;99.90
11284;DHT22;5698;47.332;11.180;2022-12-07T07:44:25;-1.50;99.90
11284;DHT22;5698;47.332;11.180;2022-12-07T07:46:52;-1.60;99.90
11284;DHT22;5698;47.332;11.180;2022-12-07T07:49:19;-1.50;99.90
11284;DHT22;5698;47.332;11.180;2022-12-07T07:51:46;-1.60;99.90
11284;DHT22;5698;47.332;11.180;2022-12-07T07:54:13;-1.50;99.90
11284;DHT22;5698;47.332;11.180;2022-12-07T07:56:40;-1.50;99.90
11284;DHT22;5698;47.332;11.180;2022-12-07T07:59:09;-1.50;99.90
11284;DHT22;5698;47.332;11.180;2022-12-07T08:01:36;-1.50;99.90
11284;DHT22;5698;47.332;11.180;2022-12-07T08:04:03;-1.60;99.90
11284;DHT22;5698;47.332;11.180;2022-12-07T08:06:30;-1.70;99.90
11284;DHT22;5698;47.332;11.180;2022-12-07T08:08:57;-1.60;99.90
11284;DHT22;5698;47.332;11.180;2022-12-07T08:11:24;-1.70;99.90
11284;DHT22;5698;47.332;11.180;2022-12-07T08:13:51;-1.80;99.90
11284;DHT22;5698;47.332;11.180;2022-12-07T08:16:20;-1.80;99.90
11284;DHT22;5698;47.332;11.180;2022-12-07T08:18:46;-1.70;99.90
11284;DHT22;5698;47.332;11.180;2022-12-07T08:21:14;-1.60;99.90
11284;DHT22;5698;47.332;11.180;2022-12-07T08:23:42;-1.60;99.90
11284;DHT22;5698;47.332;11.180;2022-12-07T08:26:11;-1.30;99.90
11284;DHT22;5698;47.332;11.180;2022-12-07T08:28:38;-1.40;99.90
11284;DHT22;5698;47.332;11.180;2022-12-07T08:31:07;-1.40;99.90
11284;DHT22;5698;47.332;11.180;2022-12-07T08:33:36;-1.30;99.90
11284;DHT22;5698;47.332;11.180;2022-12-07T08:36:04;-1.30;99.90
11284;DHT22;5698;47.332;11.180;2022-12-07T08:38:34;-1.20;99.90
11284;DHT22;5698;47.332;11.180;2022-12-07T08:41:01;-1.20;99.90
11284;DHT22;5698;47.332;11.180;2022-12-07T08:43:28;-1.30;99.90
11284;DHT22;5698;47.332;11.180;2022-12-07T08:46:04;-1.20;99.90
11284;DHT22;5698;47.332;11.180;2022-12-07T08:48:33;-1.40;99.90
11284;DHT22;5698;47.332;11.180;2022-12-07T08:51:02;-1.30;99.90
11284;DHT22;5698;47.332;11.180;2022-12-07T08:53:29;-1.30;99.90
11284;DHT22;5698;47.332;11.180;2022-12-07T08:55:57;-1.20;99.90
11284;DHT22;5698;47.332;11.180;2022-12-07T08:58:24;-1.10;99.90
11284;DHT22;5698;47.332;11.180;2022-12-07T09:00:51;-1.10;99.90
11284;DHT22;5698;47.332;11.180;2022-12-07T09:03:18;-1.10;99.90
11284;DHT22;5698;47.332;11.180;2022-12-07T09:05:45;-1.10;99.90
11284;DHT22;5698;47.332;11.180;2022-12-07T09:08:14;-1.10;99.90
11284;DHT22;5698;47.332;11.180;2022-12-07T09:10:41;-1.00;99.90
11284;DHT22;5698;47.332;11.180;2022-12-07T09:13:08;-1.00;99.90
11284;DHT22;5698;47.332;11.180;2022-12-07T09:15:35;-1.00;99.90
11284;DHT22;5698;47.332;11.180;2022-12-07T09:18:02;-1.00;99.90
11284;DHT22;5698;47.332;11.180;2022-12-07T09:20:29;-0.80;99.90
11284;DHT22;5698;47.332;11.180;2022-12-07T09:22:56;-0.80;99.90
11284;DHT22;5698;47.332;11.180;2022-12-07T09:25:24;-0.80;99.90
11284;DHT22;5698;47.332;11.180;2022-12-07T09:27:55;-0.80;99.90
11284;DHT22;5698;47.332;11.180;2022-12-07T09:30:23;-0.70;99.90
11284;DHT22;5698;47.332;11.180;2022-12-07T09:32:51;-0.50;99.90
11284;DHT22;5698;47.332;11.180;2022-12-07T09:35:19;-0.30;99.90
11284;DHT22;5698;47.332;11.180;2022-12-07T09:37:46;-0.20;99.90
11284;DHT22;5698;47.332;11.180;2022-12-07T09:40:14;0.00;99.90
11284;DHT22;5698;47.332;11.180;2022-12-07T09:42:47;-0.10;99.90
11284;DHT22;5698;47.332;11.180;2022-12-07T09:45:16;-0.10;99.90
11284;DHT22;5698;47.332;11.180;2022-12-07T09:47:45;-0.20;99.90
11284;DHT22;5698;47.332;11.180;2022-12-07T09:50:15;-0.10;99.90
11284;DHT22;5698;47.332;11.180;2022-12-07T09:52:44;0.00;99.90
11284;DHT22;5698;47.332;11.180;2022-12-07T09:55:15;0.30;99.90
11284;DHT22;5698;47.332;11.180;2022-12-07T09:57:46;0.40;99.90
11284;DHT22;5698;47.332;11.180;2022-12-07T10:00:15;0.60;99.90
11284;DHT22;5698;47.332;11.180;2022-12-07T10:02:43;0.70;99.90
11284;DHT22;5698;47.332;11.180;2022-12-07T10:05:15;0.80;99.90
11284;DHT22;5698;47.332;11.180;2022-12-07T10:07:43;0.90;99.90
11284;DHT22;5698;47.332;11.180;2022-12-07T10:10:15;1.10;99.90
11284;DHT22;5698;47.332;11.180;2022-12-07T10:12:58;1.20;99.90
11284;DHT22;5698;47.332;11.180;2022-12-07T10:15:45;1.30;99.90
11284;DHT22;5698;47.332;11.180;2022-12-07T10:18:34;1.40;99.90
11284;DHT22;5698;47.332;11.180;2022-12-07T10:21:11;1.50;99.90
11284;DHT22;5698;47.332;11.180;2022-12-07T10:23:40;1.50;99.90
11284;DHT22;5698;47.332;11.180;2022-12-07T10:26:26;1.60;99.90
11284;DHT22;5698;47.332;11.180;2022-12-07T10:28:58;1.50;99.90
11284;DHT22;5698;47.332;11.180;2022-12-07T10:31:26;1.50;99.90
11284;DHT22;5698;47.332;11.180;2022-12-07T10:33:54;1.50;99.90
11284;DHT22;5698;47.332;11.180;2022-12-07T10:36:24;1.30;99.90
11284;DHT22;5698;47.332;11.180;2022-12-07T10:38:53;1.20;99.90
11284;DHT22;5698;47.332;11.180;2022-12-07T10:41:25;1.00;99.90
11284;DHT22;5698;47.332;11.180;2022-12-07T10:43:55;0.90;99.90
11284;DHT22;5698;47.332;11.180;2022-12-07T10:46:43;0.80;99.90
11284;DHT22;5698;47.332;11.180;2022-12-07T10:49:38;0.80;99.90
11284;DHT22;5698;47.332;11.180;2022-12-07T10:52:16;0.80;99.90
11284;DHT22;5698;47.332;11.180;2022-12-07T10:54:51;0.80;99.90
11284;DHT22;5698;47.332;11.180;2022-12-07T10:57:29;0.80;99.90
11284;DHT22;5698;47.332;11.180;2022-12-07T11:00:19;0.90;99.90
11284;DHT22;5698;47.332;11.180;2022-12-07T11:05:43;0.70;99.90
11284;DHT22;5698;47.332;11.180;2022-12-07T11:08:17;0.70;99.90
11284;DHT22;5698;47.332;11.180;2022-12-07T11:10:52;0.40;99.90
11284;DHT22;5698;47.332;11.180;2022-12-07T11:13:28;0.20;99.90
11284;DHT22;5698;47.332;11.180;2022-12-07T11:19:18;0.30;99.90
11284;DHT22;5698;47.332;11.180;2022-12-07T11:21:56;0.10;99.90
11284;DHT22;5698;47.332;11.180;2022-12-07T11:24:27;0.10;99.90
11284;DHT22;5698;47.332;11.180;2022-12-07T11:27:07;0.10;99.90
11284;DHT22;5698;47.332;11.180;2022-12-07T11:29:47;0.20;99.90
11284;DHT22;5698;47.332;11.180;2022-12-07T11:32:25;0.30;99.90
11284;DHT22;5698;47.332;11.180;2022-12-07T11:35:05;0.50;99.90
11284;DHT22;5698;47.332;11.180;2022-12-07T11:37:35;0.40;99.90
11284;DHT22;5698;47.332;11.180;2022-12-07T11:40:08;0.30;99.90
11284;DHT22;5698;47.332;11.180;2022-12-07T11:42:44;0.30;99.90
11284;DHT22;5698;47.332;11.180;2022-12-07T11:45:16;0.50;99.90
11284;DHT22;5698;47.332;11.180;2022-12-07T11:47:47;0.70;99.90
11284;DHT22;5698;47.332;11.180;2022-12-07T11:50:26;0.80;99.90
11284;DHT22;5698;47.332;11.180;2022-12-07T11:52:58;0.90;99.90
11284;DHT22;5698;47.332;11.180;2022-12-07T11:55:32;1.00;99.90
11284;DHT22;5698;47.332;11.180;2022-12-07T11:58:17;1.10;99.90
11284;DHT22;5698;47.332;11.180;2022-12-07T12:00:47;1.30;99.90
11284;DHT22;5698;47.332;11.180;2022-12-07T12:03:22;1.50;99.90
11284;DHT22;5698;47.332;11.180;2022-12-07T12:05:55;1.60;99.90
11284;DHT22;5698;47.332;11.180;2022-12-07T12:08:27;1.70;99.90
11284;DHT22;5698;47.332;11.180;2022-12-07T12:11:02;1.80;99.90
11284;DHT22;5698;47.332;11.180;2022-12-07T12:20:00;1.80;99.90
11284;DHT22;5698;47.332;11.180;2022-12-07T12:22:33;1.80;99.90
11284;DHT22;5698;47.332;11.180;2022-12-07T12:25:05;1.70;99.90
11284;DHT22;5698;47.332;11.180;2022-12-07T12:27:35;1.60;99.90
11284;DHT22;5698;47.332;11.180;2022-12-07T12:30:06;1.60;99.90
11284;DHT22;5698;47.332;11.180;2022-12-07T12:32:39;1.60;99.90
11284;DHT22;5698;47.332;11.180;2022-12-07T12:35:29;1.60;99.90
11284;DHT22;5698;47.332;11.180;2022-12-07T12:38:28;1.60;99.90
11284;DHT22;5698;47.332;11.180;2022-12-07T12:40:57;1.60;99.90
11284;DHT22;5698;47.332;11.180;2022-12-07T12:43:50;1.60;99.90
11284;DHT22;5698;47.332;11.180;2022-12-07T12:46:47;1.50;99.90
11284;DHT22;5698;47.332;11.180;2022-12-07T12:49:42;1.50;99.90
11284;DHT22;5698;47.332;11.180;2022-12-07T12:55:43;1.40;99.90
11284;DHT22;5698;47.332;11.180;2022-12-07T12:58:38;1.30;99.90
11284;DHT22;5698;47.332;11.180;2022-12-07T13:01:38;1.20;99.90
11284;DHT22;5698;47.332;11.180;2022-12-07T13:04:48;1.10;99.90
11284;DHT22;5698;47.332;11.180;2022-12-07T13:07:53;1.10;99.90
11284;DHT22;5698;47.332;11.180;2022-12-07T13:10:38;1.00;99.90
11284;DHT22;5698;47.332;11.180;2022-12-07T13:13:30;1.00;99.90
11284;DHT22;5698;47.332;11.180;2022-12-07T13:18:57;0.90;99.90
11284;DHT22;5698;47.332;11.180;2022-12-07T13:21:44;1.00;99.90
11284;DHT22;5698;47.332;11.180;2022-12-07T13:24:12;1.00;99.90
11284;DHT22;5698;47.332;11.180;2022-12-07T13:26:43;1.10;99.90
11284;DHT22;5698;47.332;11.180;2022-12-07T13:29:13;1.20;99.90
11284;DHT22;5698;47.332;11.180;2022-12-07T13:31:41;1.20;99.90
11284;DHT22;5698;47.332;11.180;2022-12-07T13:34:29;1.30;99.90
11284;DHT22;5698;47.332;11.180;2022-12-07T13:36:57;1.30;99.90
11284;DHT22;5698;47.332;11.180;2022-12-07T13:39:26;1.30;99.90
11284;DHT22;5698;47.332;11.180;2022-12-07T13:41:56;1.30;99.90
11284;DHT22;5698;47.332;11.180;2022-12-07T13:44:25;1.20;99.90
11284;DHT22;5698;47.332;11.180;2022-12-07T13:47:04;1.20;99.90
11284;DHT22;5698;47.332;11.180;2022-12-07T13:49:38;1.20;99.90
11284;DHT22;5698;47.332;11.180;2022-12-07T13:52:17;1.10;99.90
11284;DHT22;5698;47.332;11.180;2022-12-07T13:54:46;1.00;99.90
11284;DHT22;5698;47.332;11.180;2022-12-07T13:57:15;1.00;99.90
11284;DHT22;5698;47.332;11.180;2022-12-07T13:59:43;1.00;99.90
11284;DHT22;5698;47.332;11.180;2022-12-07T14:02:21;0.80;99.90
11284;DHT22;5698;47.332;11.180;2022-12-07T14:04:49;0.70;99.90
11284;DHT22;5698;47.332;11.180;2022-12-07T14:07:23;0.60;99.90
11284;DHT22;5698;47.332;11.180;2022-12-07T14:09:58;0.40;99.90
11284;DHT22;5698;47.332;11.180;2022-12-07T14:12:29;0.30;99.90
11284;DHT22;5698;47.332;11.180;2022-12-07T14:14:58;0.30;99.90
11284;DHT22;5698;47.332;11.180;2022-12-07T14:17:27;0.20;99.90
11284;DHT22;5698;47.332;11.180;2022-12-07T14:19:55;0.10;99.90
11284;DHT22;5698;47.332;11.180;2022-12-07T14:22:33;0.10;99.90
11284;DHT22;5698;47.332;11.180;2022-12-07T14:25:20;0.20;99.90
11284;DHT22;5698;47.332;11.180;2022-12-07T14:27:51;0.20;99.90
11284;DHT22;5698;47.332;11.180;2022-12-07T14:30:22;0.20;99.90
11284;DHT22;5698;47.332;11.180;2022-12-07T14:32:52;0.10;99.90
11284;DHT22;5698;47.332;11.180;2022-12-07T14:35:20;0.00;99.90
11284;DHT22;5698;47.332;11.180;2022-12-07T14:37:48;0.00;99.90
11284;DHT22;5698;47.332;11.180;2022-12-07T14:40:18;0.00;99.90
11284;DHT22;5698;47.332;11.180;2022-12-07T14:42:47;0.00;99.90
11284;DHT22;5698;47.332;11.180;2022-12-07T14:45:18;-0.10;99.90
11284;DHT22;5698;47.332;11.180;2022-12-07T14:47:46;-0.10;99.90
11284;DHT22;5698;47.332;11.180;2022-12-07T14:50:14;-0.20;99.90
11284;DHT22;5698;47.332;11.180;2022-12-07T14:52:43;-0.20;99.90
11284;DHT22;5698;47.332;11.180;2022-12-07T14:55:14;-0.20;99.90
11284;DHT22;5698;47.332;11.180;2022-12-07T14:57:43;-0.20;99.90
11284;DHT22;5698;47.332;11.180;2022-12-07T15:00:16;-0.20;99.90
11284;DHT22;5698;47.332;11.180;2022-12-07T15:02:43;-0.20;99.90
11284;DHT22;5698;47.332;11.180;2022-12-07T15:05:11;-0.20;99.90
11284;DHT22;5698;47.332;11.180;2022-12-07T15:07:38;-0.20;99.90
11284;DHT22;5698;47.332;11.180;2022-12-07T15:10:10;-0.20;99.90
11284;DHT22;5698;47.332;11.180;2022-12-07T15:12:39;-0.20;99.90
11284;DHT22;5698;47.332;11.180;2022-12-07T15:15:07;-0.20;99.90
11284;DHT22;5698;47.332;11.180;2022-12-07T15:17:36;-0.20;99.90
11284;DHT22;5698;47.332;11.180;2022-12-07T15:20:04;-0.30;99.90
11284;DHT22;5698;47.332;11.180;2022-12-07T15:22:31;-0.40;99.90
11284;DHT22;5698;47.332;11.180;2022-12-07T15:24:58;-0.50;99.90
11284;DHT22;5698;47.332;11.180;2022-12-07T15:27:25;-0.60;99.90
11284;DHT22;5698;47.332;11.180;2022-12-07T15:29:52;-0.60;99.90
11284;DHT22;5698;47.332;11.180;2022-12-07T15:32:20;-0.60;99.90
11284;DHT22;5698;47.332;11.180;2022-12-07T15:34:49;-0.50;99.90
11284;DHT22;5698;47.332;11.180;2022-12-07T15:37:16;-0.60;99.90
11284;DHT22;5698;47.332;11.180;2022-12-07T15:39:43;-0.60;99.90
11284;DHT22;5698;47.332;11.180;2022-12-07T15:42:10;-0.70;99.90
11284;DHT22;5698;47.332;11.180;2022-12-07T15:44:37;-0.60;99.90
11284;DHT22;5698;47.332;11.180;2022-12-07T15:47:21;-0.70;99.90
11284;DHT22;5698;47.332;11.180;2022-12-07T15:49:50;-0.70;99.90
11284;DHT22;5698;47.332;11.180;2022-12-07T15:52:17;-0.60;99.90
11284;DHT22;5698;47.332;11.180;2022-12-07T15:54:44;-0.80;99.90
11284;DHT22;5698;47.332;11.180;2022-12-07T15:57:13;-0.90;99.90
11284;DHT22;5698;47.332;11.180;2022-12-07T15:59:40;-1.00;99.90
11284;DHT22;5698;47.332;11.180;2022-12-07T16:02:08;-1.00;99.90
11284;DHT22;5698;47.332;11.180;2022-12-07T16:04:35;-1.00;99.90
11284;DHT22;5698;47.332;11.180;2022-12-07T16:07:04;-1.00;99.90
11284;DHT22;5698;47.332;11.180;2022-12-07T16:09:31;-1.10;99.90
11284;DHT22;5698;47.332;11.180;2022-12-07T16:11:58;-1.00;99.90
11284;DHT22;5698;47.332;11.180;2022-12-07T16:14:25;-1.00;99.90
11284;DHT22;5698;47.332;11.180;2022-12-07T16:16:52;-1.00;99.90